sensor_id;sensor_type;location;lat;lon;timestamp;pressure;altitude;pressure_sealevel;temperature
42119;BMP280;27783;42.782;23.274;2022-12-10T00:01:34;94867.84;;;8.68
42119;BMP280;27783;42.782;23.274;2022-12-10T00:04:00;94886.00;;;9.02
42119;BMP280;27783;42.782;23.274;2022-12-10T00:06:29;94886.69;;;8.49
42119;BMP280;27783;42.782;23.274;2022-12-10T00:08:55;94891.19;;;8.52
42119;BMP280;27783;42.782;23.274;2022-12-10T00:11:23;94873.09;;;8.68
42119;BMP280;27783;42.782;23.274;2022-12-10T00:13:53;94869.63;;;8.81
42119;BMP280;27783;42.782;23.274;2022-12-10T00:16:27;94861.94;;;9.07
42119;BMP280;27783;42.782;23.274;2022-12-10T00:18:54;94881.97;;;9.37
42119;BMP280;27783;42.782;23.274;2022-12-10T00:21:29;94867.47;;;9.15
42119;BMP280;27783;42.782;23.274;2022-12-10T00:23:57;94869.53;;;8.95
42119;BMP280;27783;42.782;23.274;2022-12-10T00:28:55;94874.38;;;8.96
42119;BMP280;27783;42.782;23.274;2022-12-10T00:31:31;94886.50;;;8.80
42119;BMP280;27783;42.782;23.274;2022-12-10T00:33:59;94894.03;;;8.78
42119;BMP280;27783;42.782;23.274;2022-12-10T00:36:37;94879.22;;;9.04
42119;BMP280;27783;42.782;23.274;2022-12-10T00:39:04;94886.19;;;9.28
42119;BMP280;27783;42.782;23.274;2022-12-10T00:41:30;94882.91;;;9.14
42119;BMP280;27783;42.782;23.274;2022-12-10T00:43:58;94886.94;;;9.28
42119;BMP280;27783;42.782;23.274;2022-12-10T00:46:49;94879.19;;;9.08
42119;BMP280;27783;42.782;23.274;2022-12-10T00:49:29;94881.81;;;9.08
42119;BMP280;27783;42.782;23.274;2022-12-10T00:51:54;94893.09;;;9.08
42119;BMP280;27783;42.782;23.274;2022-12-10T00:54:21;94878.81;;;9.06
42119;BMP280;27783;42.782;23.274;2022-12-10T00:56:46;94874.28;;;9.10
42119;BMP280;27783;42.782;23.274;2022-12-10T00:59:12;94888.50;;;9.15
42119;BMP280;27783;42.782;23.274;2022-12-10T01:01:42;94895.22;;;9.23
42119;BMP280;27783;42.782;23.274;2022-12-10T01:04:15;94905.81;;;9.13
42119;BMP280;27783;42.782;23.274;2022-12-10T01:06:48;94896.09;;;9.07
42119;BMP280;27783;42.782;23.274;2022-12-10T01:09:20;94870.44;;;9.24
42119;BMP280;27783;42.782;23.274;2022-12-10T01:11:47;94877.06;;;9.39
42119;BMP280;27783;42.782;23.274;2022-12-10T01:14:34;94878.03;;;9.09
42119;BMP280;27783;42.782;23.274;2022-12-10T01:17:02;94879.59;;;9.03
42119;BMP280;27783;42.782;23.274;2022-12-10T01:19:35;94884.31;;;9.28
42119;BMP280;27783;42.782;23.274;2022-12-10T01:22:04;94881.06;;;9.11
42119;BMP280;27783;42.782;23.274;2022-12-10T01:24:30;94877.13;;;9.29
42119;BMP280;27783;42.782;23.274;2022-12-10T01:26:56;94860.94;;;9.37
42119;BMP280;27783;42.782;23.274;2022-12-10T01:29:23;94874.78;;;9.41
42119;BMP280;27783;42.782;23.274;2022-12-10T01:31:54;94859.81;;;9.77
42119;BMP280;27783;42.782;23.274;2022-12-10T01:34:21;94861.97;;;9.46
42119;BMP280;27783;42.782;23.274;2022-12-10T01:36:53;94856.88;;;9.65
42119;BMP280;27783;42.782;23.274;2022-12-10T01:39:28;94869.38;;;9.58
42119;BMP280;27783;42.782;23.274;2022-12-10T01:41:56;94868.75;;;9.44
42119;BMP280;27783;42.782;23.274;2022-12-10T01:46:56;94867.44;;;9.22
42119;BMP280;27783;42.782;23.274;2022-12-10T01:49:31;94872.72;;;9.19
42119;BMP280;27783;42.782;23.274;2022-12-10T01:51:59;94876.91;;;9.10
42119;BMP280;27783;42.782;23.274;2022-12-10T01:54:34;94877.75;;;9.00
42119;BMP280;27783;42.782;23.274;2022-12-10T01:57:08;94876.56;;;9.08
42119;BMP280;27783;42.782;23.274;2022-12-10T01:59:36;94869.16;;;8.93
42119;BMP280;27783;42.782;23.274;2022-12-10T02:02:13;94862.03;;;8.93
42119;BMP280;27783;42.782;23.274;2022-12-10T02:07:26;94854.75;;;9.11
42119;BMP280;27783;42.782;23.274;2022-12-10T02:10:07;94859.91;;;9.24
42119;BMP280;27783;42.782;23.274;2022-12-10T02:13:21;94863.47;;;9.01
42119;BMP280;27783;42.782;23.274;2022-12-10T02:15:34;94860.47;;;8.99
42119;BMP280;27783;42.782;23.274;2022-12-10T02:18:30;94841.53;;;8.75
42119;BMP280;27783;42.782;23.274;2022-12-10T02:21:02;94829.38;;;8.91
42119;BMP280;27783;42.782;23.274;2022-12-10T02:23:53;94833.78;;;9.04
42119;BMP280;27783;42.782;23.274;2022-12-10T02:27:14;94826.13;;;9.19
42119;BMP280;27783;42.782;23.274;2022-12-10T02:29:43;94831.81;;;9.18
42119;BMP280;27783;42.782;23.274;2022-12-10T02:32:14;94826.16;;;9.16
42119;BMP280;27783;42.782;23.274;2022-12-10T02:34:48;94811.53;;;9.18
42119;BMP280;27783;42.782;23.274;2022-12-10T02:37:24;94821.25;;;9.21
42119;BMP280;27783;42.782;23.274;2022-12-10T02:39:54;94811.13;;;9.20
42119;BMP280;27783;42.782;23.274;2022-12-10T02:42:29;94813.38;;;9.21
42119;BMP280;27783;42.782;23.274;2022-12-10T02:44:57;94820.91;;;9.16
42119;BMP280;27783;42.782;23.274;2022-12-10T02:47:25;94825.13;;;9.07
42119;BMP280;27783;42.782;23.274;2022-12-10T02:50:03;94829.25;;;9.08
42119;BMP280;27783;42.782;23.274;2022-12-10T02:52:28;94826.91;;;9.16
42119;BMP280;27783;42.782;23.274;2022-12-10T02:54:54;94822.56;;;9.00
42119;BMP280;27783;42.782;23.274;2022-12-10T02:57:46;94827.31;;;9.15
42119;BMP280;27783;42.782;23.274;2022-12-10T03:02:54;94829.59;;;9.10
42119;BMP280;27783;42.782;23.274;2022-12-10T03:05:52;94819.19;;;8.99
42119;BMP280;27783;42.782;23.274;2022-12-10T03:11:13;94819.59;;;8.98
42119;BMP280;27783;42.782;23.274;2022-12-10T03:16:34;94821.34;;;9.11
42119;BMP280;27783;42.782;23.274;2022-12-10T03:19:04;94813.91;;;8.99
42119;BMP280;27783;42.782;23.274;2022-12-10T03:21:32;94813.50;;;9.08
42119;BMP280;27783;42.782;23.274;2022-12-10T03:23:59;94806.78;;;9.00
42119;BMP280;27783;42.782;23.274;2022-12-10T03:26:26;94802.66;;;8.99
42119;BMP280;27783;42.782;23.274;2022-12-10T03:29:01;94795.91;;;9.01
42119;BMP280;27783;42.782;23.274;2022-12-10T03:31:29;94798.88;;;9.03
42119;BMP280;27783;42.782;23.274;2022-12-10T03:33:55;94801.47;;;9.07
42119;BMP280;27783;42.782;23.274;2022-12-10T03:36:24;94797.34;;;9.06
42119;BMP280;27783;42.782;23.274;2022-12-10T03:38:51;94785.72;;;9.03
42119;BMP280;27783;42.782;23.274;2022-12-10T03:41:32;94791.78;;;9.00
42119;BMP280;27783;42.782;23.274;2022-12-10T03:44:00;94791.81;;;8.97
42119;BMP280;27783;42.782;23.274;2022-12-10T03:46:28;94789.91;;;8.98
42119;BMP280;27783;42.782;23.274;2022-12-10T03:49:12;94788.19;;;8.81
42119;BMP280;27783;42.782;23.274;2022-12-10T03:51:41;94788.97;;;8.75
42119;BMP280;27783;42.782;23.274;2022-12-10T03:54:06;94797.88;;;8.87
42119;BMP280;27783;42.782;23.274;2022-12-10T03:56:32;94785.19;;;8.76
42119;BMP280;27783;42.782;23.274;2022-12-10T03:58:59;94790.09;;;8.74
42119;BMP280;27783;42.782;23.274;2022-12-10T04:01:24;94788.22;;;8.74
42119;BMP280;27783;42.782;23.274;2022-12-10T04:03:50;94794.25;;;8.75
42119;BMP280;27783;42.782;23.274;2022-12-10T04:06:18;94784.44;;;8.79
42119;BMP280;27783;42.782;23.274;2022-12-10T04:08:45;94799.81;;;8.80
42119;BMP280;27783;42.782;23.274;2022-12-10T04:11:13;94806.88;;;8.90
42119;BMP280;27783;42.782;23.274;2022-12-10T04:13:40;94808.09;;;8.79
42119;BMP280;27783;42.782;23.274;2022-12-10T04:16:34;94797.56;;;8.82
42119;BMP280;27783;42.782;23.274;2022-12-10T04:19:04;94812.94;;;8.83
42119;BMP280;27783;42.782;23.274;2022-12-10T04:21:32;94809.16;;;8.88
42119;BMP280;27783;42.782;23.274;2022-12-10T04:24:19;94797.81;;;8.98
42119;BMP280;27783;42.782;23.274;2022-12-10T04:27:10;94801.56;;;8.97
42119;BMP280;27783;42.782;23.274;2022-12-10T04:29:38;94816.56;;;8.99
42119;BMP280;27783;42.782;23.274;2022-12-10T04:32:12;94813.88;;;9.06
42119;BMP280;27783;42.782;23.274;2022-12-10T04:34:37;94811.31;;;8.96
42119;BMP280;27783;42.782;23.274;2022-12-10T04:37:03;94806.44;;;8.98
42119;BMP280;27783;42.782;23.274;2022-12-10T04:39:31;94804.91;;;9.00
42119;BMP280;27783;42.782;23.274;2022-12-10T04:41:57;94806.38;;;9.05
42119;BMP280;27783;42.782;23.274;2022-12-10T04:44:22;94804.84;;;9.07
42119;BMP280;27783;42.782;23.274;2022-12-10T04:46:48;94801.09;;;9.08
42119;BMP280;27783;42.782;23.274;2022-12-10T04:49:14;94807.50;;;9.04
42119;BMP280;27783;42.782;23.274;2022-12-10T04:51:41;94804.03;;;9.14
42119;BMP280;27783;42.782;23.274;2022-12-10T04:54:07;94812.75;;;9.07
42119;BMP280;27783;42.782;23.274;2022-12-10T04:56:42;94808.94;;;9.12
42119;BMP280;27783;42.782;23.274;2022-12-10T04:59:09;94810.03;;;9.17
42119;BMP280;27783;42.782;23.274;2022-12-10T05:01:36;94824.34;;;9.10
42119;BMP280;27783;42.782;23.274;2022-12-10T05:04:19;94802.28;;;9.00
42119;BMP280;27783;42.782;23.274;2022-12-10T05:06:47;94791.28;;;9.12
42119;BMP280;27783;42.782;23.274;2022-12-10T05:09:18;94780.97;;;9.31
42119;BMP280;27783;42.782;23.274;2022-12-10T05:11:44;94792.59;;;9.33
42119;BMP280;27783;42.782;23.274;2022-12-10T05:14:14;94796.66;;;9.41
42119;BMP280;27783;42.782;23.274;2022-12-10T05:16:42;94773.03;;;10.03
42119;BMP280;27783;42.782;23.274;2022-12-10T05:19:11;94779.56;;;10.21
42119;BMP280;27783;42.782;23.274;2022-12-10T05:21:38;94779.88;;;10.26
42119;BMP280;27783;42.782;23.274;2022-12-10T05:24:25;94779.25;;;10.16
42119;BMP280;27783;42.782;23.274;2022-12-10T05:26:51;94775.63;;;10.06
42119;BMP280;27783;42.782;23.274;2022-12-10T05:29:17;94771.13;;;10.07
42119;BMP280;27783;42.782;23.274;2022-12-10T05:31:46;94774.91;;;10.02
42119;BMP280;27783;42.782;23.274;2022-12-10T05:34:11;94772.53;;;10.11
42119;BMP280;27783;42.782;23.274;2022-12-10T05:36:37;94769.53;;;10.13
42119;BMP280;27783;42.782;23.274;2022-12-10T05:39:02;94774.69;;;10.19
42119;BMP280;27783;42.782;23.274;2022-12-10T05:41:35;94775.53;;;10.13
42119;BMP280;27783;42.782;23.274;2022-12-10T05:44:01;94774.25;;;9.95
42119;BMP280;27783;42.782;23.274;2022-12-10T05:46:30;94763.78;;;9.92
42119;BMP280;27783;42.782;23.274;2022-12-10T05:49:11;94790.09;;;9.92
42119;BMP280;27783;42.782;23.274;2022-12-10T05:51:37;94791.03;;;9.72
42119;BMP280;27783;42.782;23.274;2022-12-10T05:54:03;94803.16;;;9.66
42119;BMP280;27783;42.782;23.274;2022-12-10T05:56:30;94800.13;;;9.67
42119;BMP280;27783;42.782;23.274;2022-12-10T05:59:00;94810.69;;;9.64
42119;BMP280;27783;42.782;23.274;2022-12-10T06:01:30;94812.19;;;9.62
42119;BMP280;27783;42.782;23.274;2022-12-10T06:03:58;94810.47;;;9.84
42119;BMP280;27783;42.782;23.274;2022-12-10T06:06:37;94812.94;;;9.62
42119;BMP280;27783;42.782;23.274;2022-12-10T06:09:24;94814.31;;;9.80
42119;BMP280;27783;42.782;23.274;2022-12-10T06:11:49;94812.97;;;9.59
42119;BMP280;27783;42.782;23.274;2022-12-10T06:14:16;94808.19;;;9.50
42119;BMP280;27783;42.782;23.274;2022-12-10T06:16:42;94811.47;;;9.61
42119;BMP280;27783;42.782;23.274;2022-12-10T06:19:09;94810.66;;;9.67
42119;BMP280;27783;42.782;23.274;2022-12-10T06:21:40;94800.78;;;9.78
42119;BMP280;27783;42.782;23.274;2022-12-10T06:24:05;94802.44;;;9.62
42119;BMP280;27783;42.782;23.274;2022-12-10T06:26:31;94806.56;;;9.63
42119;BMP280;27783;42.782;23.274;2022-12-10T06:29:05;94805.00;;;9.69
42119;BMP280;27783;42.782;23.274;2022-12-10T06:31:31;94790.78;;;9.63
42119;BMP280;27783;42.782;23.274;2022-12-10T06:33:57;94796.34;;;9.68
42119;BMP280;27783;42.782;23.274;2022-12-10T06:36:24;94797.84;;;9.69
42119;BMP280;27783;42.782;23.274;2022-12-10T06:38:50;94783.91;;;10.05
42119;BMP280;27783;42.782;23.274;2022-12-10T06:41:18;94794.09;;;10.03
42119;BMP280;27783;42.782;23.274;2022-12-10T06:43:48;94806.47;;;10.06
42119;BMP280;27783;42.782;23.274;2022-12-10T06:46:16;94797.44;;;10.07
42119;BMP280;27783;42.782;23.274;2022-12-10T06:48:43;94810.31;;;9.98
42119;BMP280;27783;42.782;23.274;2022-12-10T06:51:10;94814.03;;;10.04
42119;BMP280;27783;42.782;23.274;2022-12-10T06:53:37;94817.88;;;9.96
42119;BMP280;27783;42.782;23.274;2022-12-10T06:56:05;94814.75;;;10.04
42119;BMP280;27783;42.782;23.274;2022-12-10T06:58:33;94825.94;;;10.12
42119;BMP280;27783;42.782;23.274;2022-12-10T07:01:06;94813.78;;;10.21
42119;BMP280;27783;42.782;23.274;2022-12-10T07:03:33;94816.03;;;10.22
42119;BMP280;27783;42.782;23.274;2022-12-10T07:06:06;94819.41;;;10.23
42119;BMP280;27783;42.782;23.274;2022-12-10T07:08:33;94809.63;;;10.23
42119;BMP280;27783;42.782;23.274;2022-12-10T07:11:09;94819.25;;;10.36
42119;BMP280;27783;42.782;23.274;2022-12-10T07:13:36;94814.03;;;10.33
42119;BMP280;27783;42.782;23.274;2022-12-10T07:16:03;94815.78;;;10.43
42119;BMP280;27783;42.782;23.274;2022-12-10T07:18:35;94801.00;;;10.49
42119;BMP280;27783;42.782;23.274;2022-12-10T07:21:02;94804.50;;;10.68
42119;BMP280;27783;42.782;23.274;2022-12-10T07:23:38;94787.53;;;10.69
42119;BMP280;27783;42.782;23.274;2022-12-10T07:26:03;94793.28;;;10.61
42119;BMP280;27783;42.782;23.274;2022-12-10T07:28:29;94787.97;;;10.64
42119;BMP280;27783;42.782;23.274;2022-12-10T07:31:01;94792.09;;;10.65
42119;BMP280;27783;42.782;23.274;2022-12-10T07:33:27;94780.53;;;10.59
42119;BMP280;27783;42.782;23.274;2022-12-10T07:35:53;94778.94;;;10.65
42119;BMP280;27783;42.782;23.274;2022-12-10T07:38:19;94787.88;;;10.71
42119;BMP280;27783;42.782;23.274;2022-12-10T07:40:46;94777.59;;;10.80
42119;BMP280;27783;42.782;23.274;2022-12-10T07:43:11;94776.91;;;10.98
42119;BMP280;27783;42.782;23.274;2022-12-10T07:45:37;94784.28;;;11.06
42119;BMP280;27783;42.782;23.274;2022-12-10T07:48:02;94787.72;;;11.03
42119;BMP280;27783;42.782;23.274;2022-12-10T07:50:29;94777.50;;;11.09
42119;BMP280;27783;42.782;23.274;2022-12-10T07:52:55;94781.47;;;11.16
42119;BMP280;27783;42.782;23.274;2022-12-10T07:55:21;94773.94;;;11.18
42119;BMP280;27783;42.782;23.274;2022-12-10T07:57:47;94761.69;;;11.31
42119;BMP280;27783;42.782;23.274;2022-12-10T08:00:19;94759.19;;;11.43
42119;BMP280;27783;42.782;23.274;2022-12-10T08:02:46;94755.41;;;11.44
42119;BMP280;27783;42.782;23.274;2022-12-10T08:05:13;94747.81;;;11.46
42119;BMP280;27783;42.782;23.274;2022-12-10T08:07:39;94745.81;;;11.72
42119;BMP280;27783;42.782;23.274;2022-12-10T08:10:06;94763.34;;;12.01
42119;BMP280;27783;42.782;23.274;2022-12-10T08:12:32;94753.28;;;12.12
42119;BMP280;27783;42.782;23.274;2022-12-10T08:15:00;94762.91;;;12.21
42119;BMP280;27783;42.782;23.274;2022-12-10T08:17:28;94775.75;;;12.38
42119;BMP280;27783;42.782;23.274;2022-12-10T08:19:53;94770.94;;;12.33
42119;BMP280;27783;42.782;23.274;2022-12-10T08:22:21;94765.22;;;12.19
42119;BMP280;27783;42.782;23.274;2022-12-10T08:24:48;94769.75;;;12.19
42119;BMP280;27783;42.782;23.274;2022-12-10T08:27:15;94769.13;;;12.12
42119;BMP280;27783;42.782;23.274;2022-12-10T08:29:40;94760.13;;;12.09
42119;BMP280;27783;42.782;23.274;2022-12-10T08:32:05;94764.28;;;12.10
42119;BMP280;27783;42.782;23.274;2022-12-10T08:34:31;94759.22;;;12.00
42119;BMP280;27783;42.782;23.274;2022-12-10T08:36:56;94740.00;;;12.15
42119;BMP280;27783;42.782;23.274;2022-12-10T08:39:22;94752.69;;;12.23
42119;BMP280;27783;42.782;23.274;2022-12-10T08:41:49;94758.56;;;12.31
42119;BMP280;27783;42.782;23.274;2022-12-10T08:44:17;94762.09;;;12.24
42119;BMP280;27783;42.782;23.274;2022-12-10T08:46:42;94761.94;;;12.31
42119;BMP280;27783;42.782;23.274;2022-12-10T08:49:08;94768.72;;;12.32
42119;BMP280;27783;42.782;23.274;2022-12-10T08:51:34;94777.88;;;12.62
42119;BMP280;27783;42.782;23.274;2022-12-10T08:54:01;94773.66;;;12.65
42119;BMP280;27783;42.782;23.274;2022-12-10T08:56:26;94757.88;;;12.61
42119;BMP280;27783;42.782;23.274;2022-12-10T08:58:58;94737.22;;;12.56
42119;BMP280;27783;42.782;23.274;2022-12-10T09:01:25;94725.28;;;12.83
42119;BMP280;27783;42.782;23.274;2022-12-10T09:03:51;94712.88;;;12.96
42119;BMP280;27783;42.782;23.274;2022-12-10T09:06:19;94714.19;;;13.03
42119;BMP280;27783;42.782;23.274;2022-12-10T09:08:44;94723.09;;;13.25
42119;BMP280;27783;42.782;23.274;2022-12-10T09:11:27;94730.22;;;13.55
42119;BMP280;27783;42.782;23.274;2022-12-10T09:13:55;94720.91;;;13.63
42119;BMP280;27783;42.782;23.274;2022-12-10T09:16:20;94722.81;;;13.78
42119;BMP280;27783;42.782;23.274;2022-12-10T09:18:48;94723.06;;;13.96
42119;BMP280;27783;42.782;23.274;2022-12-10T09:21:15;94710.84;;;13.58
42119;BMP280;27783;42.782;23.274;2022-12-10T09:23:50;94720.91;;;13.63
42119;BMP280;27783;42.782;23.274;2022-12-10T09:26:17;94710.56;;;13.68
42119;BMP280;27783;42.782;23.274;2022-12-10T09:28:45;94695.53;;;13.78
42119;BMP280;27783;42.782;23.274;2022-12-10T09:31:11;94696.88;;;13.85
42119;BMP280;27783;42.782;23.274;2022-12-10T09:33:37;94696.47;;;13.99
42119;BMP280;27783;42.782;23.274;2022-12-10T09:36:06;94693.03;;;13.86
42119;BMP280;27783;42.782;23.274;2022-12-10T09:38:37;94688.69;;;13.80
42119;BMP280;27783;42.782;23.274;2022-12-10T09:46:13;94685.88;;;13.99
42119;BMP280;27783;42.782;23.274;2022-12-10T09:53:42;94667.44;;;14.20
42119;BMP280;27783;42.782;23.274;2022-12-10T09:56:18;94643.91;;;14.34
42119;BMP280;27783;42.782;23.274;2022-12-10T09:58:47;94644.31;;;13.96
42119;BMP280;27783;42.782;23.274;2022-12-10T10:01:14;94644.31;;;13.96
42119;BMP280;27783;42.782;23.274;2022-12-10T10:03:43;94646.03;;;14.15
42119;BMP280;27783;42.782;23.274;2022-12-10T10:06:12;94647.63;;;14.12
42119;BMP280;27783;42.782;23.274;2022-12-10T10:08:50;94642.34;;;14.12
42119;BMP280;27783;42.782;23.274;2022-12-10T10:11:32;94640.00;;;14.14
42119;BMP280;27783;42.782;23.274;2022-12-10T10:14:18;94641.59;;;14.12
42119;BMP280;27783;42.782;23.274;2022-12-10T10:17:31;94649.44;;;14.51
42119;BMP280;27783;42.782;23.274;2022-12-10T10:19:59;94639.72;;;14.69
42119;BMP280;27783;42.782;23.274;2022-12-10T10:22:25;94626.09;;;14.47
42119;BMP280;27783;42.782;23.274;2022-12-10T10:24:51;94611.44;;;14.42
42119;BMP280;27783;42.782;23.274;2022-12-10T10:27:22;94610.91;;;14.47
42119;BMP280;27783;42.782;23.274;2022-12-10T10:29:50;94609.84;;;14.57
42119;BMP280;27783;42.782;23.274;2022-12-10T10:32:22;94598.09;;;14.33
42119;BMP280;27783;42.782;23.274;2022-12-10T10:34:59;94598.31;;;14.39
42119;BMP280;27783;42.782;23.274;2022-12-10T10:37:39;94598.84;;;14.34
42119;BMP280;27783;42.782;23.274;2022-12-10T10:40:06;94599.78;;;14.40
42119;BMP280;27783;42.782;23.274;2022-12-10T10:42:42;94596.50;;;14.48
42119;BMP280;27783;42.782;23.274;2022-12-10T10:45:38;94593.31;;;14.86
42119;BMP280;27783;42.782;23.274;2022-12-10T10:48:11;94594.06;;;14.86
42119;BMP280;27783;42.782;23.274;2022-12-10T10:50:43;94591.22;;;14.81
42119;BMP280;27783;42.782;23.274;2022-12-10T10:55:47;94583.75;;;15.01
42119;BMP280;27783;42.782;23.274;2022-12-10T10:58:20;94580.25;;;15.03
42119;BMP280;27783;42.782;23.274;2022-12-10T11:03:28;94569.50;;;15.78
42119;BMP280;27783;42.782;23.274;2022-12-10T11:05:57;94578.25;;;15.87
42119;BMP280;27783;42.782;23.274;2022-12-10T11:08:26;94581.56;;;15.91
42119;BMP280;27783;42.782;23.274;2022-12-10T11:11:12;94568.25;;;15.62
42119;BMP280;27783;42.782;23.274;2022-12-10T11:13:42;94555.59;;;15.45
42119;BMP280;27783;42.782;23.274;2022-12-10T11:16:22;94539.72;;;15.53
42119;BMP280;27783;42.782;23.274;2022-12-10T11:19:00;94537.63;;;15.49
42119;BMP280;27783;42.782;23.274;2022-12-10T11:21:32;94536.31;;;15.53
42119;BMP280;27783;42.782;23.274;2022-12-10T11:23:59;94531.34;;;15.34
42119;BMP280;27783;42.782;23.274;2022-12-10T11:42:59;94526.66;;;15.67
42119;BMP280;27783;42.782;23.274;2022-12-10T11:45:50;94518.03;;;15.55
42119;BMP280;27783;42.782;23.274;2022-12-10T11:48:36;94526.19;;;15.60
42119;BMP280;27783;42.782;23.274;2022-12-10T11:51:09;94515.97;;;15.88
42119;BMP280;27783;42.782;23.274;2022-12-10T11:56:33;94500.06;;;15.59
42119;BMP280;27783;42.782;23.274;2022-12-10T11:59:28;94506.91;;;15.77
42119;BMP280;27783;42.782;23.274;2022-12-10T12:15:11;94471.31;;;16.13
42119;BMP280;27783;42.782;23.274;2022-12-10T12:17:42;94461.00;;;16.06
42119;BMP280;27783;42.782;23.274;2022-12-10T12:20:32;94459.84;;;15.78
42119;BMP280;27783;42.782;23.274;2022-12-10T12:23:09;94446.28;;;15.84
42119;BMP280;27783;42.782;23.274;2022-12-10T12:25:40;94453.44;;;16.05
42119;BMP280;27783;42.782;23.274;2022-12-10T12:30:44;94438.22;;;15.97
42119;BMP280;27783;42.782;23.274;2022-12-10T12:35:55;94418.59;;;16.20
42119;BMP280;27783;42.782;23.274;2022-12-10T12:43:58;94400.56;;;16.07
42119;BMP280;27783;42.782;23.274;2022-12-10T12:46:39;94394.47;;;15.80
42119;BMP280;27783;42.782;23.274;2022-12-10T12:54:49;94387.56;;;16.00
42119;BMP280;27783;42.782;23.274;2022-12-10T12:57:35;94380.66;;;16.02
42119;BMP280;27783;42.782;23.274;2022-12-10T13:00:19;94390.81;;;16.04
42119;BMP280;27783;42.782;23.274;2022-12-10T13:03:00;94378.72;;;15.94
42119;BMP280;27783;42.782;23.274;2022-12-10T13:05:46;94376.03;;;15.85
42119;BMP280;27783;42.782;23.274;2022-12-10T13:13:40;94377.00;;;15.70
42119;BMP280;27783;42.782;23.274;2022-12-10T13:29:54;94358.25;;;15.18
42119;BMP280;27783;42.782;23.274;2022-12-10T13:40:23;94326.28;;;14.62
42119;BMP280;27783;42.782;23.274;2022-12-10T13:42:57;94323.44;;;14.78
42119;BMP280;27783;42.782;23.274;2022-12-10T13:45:41;94312.47;;;14.67
42119;BMP280;27783;42.782;23.274;2022-12-10T13:53:55;94318.34;;;14.62
42119;BMP280;27783;42.782;23.274;2022-12-10T13:59:04;94326.03;;;14.69
42119;BMP280;27783;42.782;23.274;2022-12-10T14:07:24;94315.97;;;14.34
42119;BMP280;27783;42.782;23.274;2022-12-10T14:09:56;94318.09;;;14.18
42119;BMP280;27783;42.782;23.274;2022-12-10T14:15:00;94318.75;;;14.31
42119;BMP280;27783;42.782;23.274;2022-12-10T14:17:35;94324.94;;;14.28
42119;BMP280;27783;42.782;23.274;2022-12-10T14:20:03;94322.78;;;14.15
42119;BMP280;27783;42.782;23.274;2022-12-10T14:25:47;94305.31;;;13.84
42119;BMP280;27783;42.782;23.274;2022-12-10T14:28:16;94300.28;;;13.65
42119;BMP280;27783;42.782;23.274;2022-12-10T14:30:45;94300.97;;;13.78
42119;BMP280;27783;42.782;23.274;2022-12-10T14:33:17;94315.13;;;13.96
42119;BMP280;27783;42.782;23.274;2022-12-10T14:35:47;94324.63;;;14.05
42119;BMP280;27783;42.782;23.274;2022-12-10T14:38:30;94317.28;;;13.88
42119;BMP280;27783;42.782;23.274;2022-12-10T14:40:59;94303.53;;;13.69
42119;BMP280;27783;42.782;23.274;2022-12-10T14:43:36;94301.13;;;13.62
42119;BMP280;27783;42.782;23.274;2022-12-10T14:46:13;94292.22;;;13.56
42119;BMP280;27783;42.782;23.274;2022-12-10T14:49:03;94294.66;;;13.63
42119;BMP280;27783;42.782;23.274;2022-12-10T14:51:32;94290.09;;;13.64
42119;BMP280;27783;42.782;23.274;2022-12-10T14:53:59;94299.00;;;13.57
42119;BMP280;27783;42.782;23.274;2022-12-10T14:56:33;94288.25;;;13.52
42119;BMP280;27783;42.782;23.274;2022-12-10T14:59:13;94291.63;;;13.52
42119;BMP280;27783;42.782;23.274;2022-12-10T15:01:46;94293.53;;;13.52
42119;BMP280;27783;42.782;23.274;2022-12-10T15:04:23;94285.38;;;13.47
42119;BMP280;27783;42.782;23.274;2022-12-10T15:06:58;94298.47;;;13.62
42119;BMP280;27783;42.782;23.274;2022-12-10T15:09:27;94285.94;;;13.42
42119;BMP280;27783;42.782;23.274;2022-12-10T15:12:15;94290.38;;;13.45
42119;BMP280;27783;42.782;23.274;2022-12-10T15:14:50;94304.28;;;13.36
42119;BMP280;27783;42.782;23.274;2022-12-10T15:17:34;94307.38;;;13.23
42119;BMP280;27783;42.782;23.274;2022-12-10T15:20:01;94292.13;;;13.15
42119;BMP280;27783;42.782;23.274;2022-12-10T15:22:28;94291.50;;;13.11
42119;BMP280;27783;42.782;23.274;2022-12-10T15:24:56;94290.63;;;13.14
42119;BMP280;27783;42.782;23.274;2022-12-10T15:27:24;94286.75;;;13.06
42119;BMP280;27783;42.782;23.274;2022-12-10T15:29:50;94292.91;;;13.03
42119;BMP280;27783;42.782;23.274;2022-12-10T15:32:27;94293.34;;;12.89
42119;BMP280;27783;42.782;23.274;2022-12-10T15:35:04;94285.06;;;12.87
42119;BMP280;27783;42.782;23.274;2022-12-10T15:37:37;94282.13;;;12.85
42119;BMP280;27783;42.782;23.274;2022-12-10T15:42:50;94273.66;;;12.78
42119;BMP280;27783;42.782;23.274;2022-12-10T15:45:37;94274.50;;;12.87
42119;BMP280;27783;42.782;23.274;2022-12-10T15:48:06;94277.69;;;12.83
42119;BMP280;27783;42.782;23.274;2022-12-10T15:50:32;94271.34;;;12.80
42119;BMP280;27783;42.782;23.274;2022-12-10T15:53:02;94264.59;;;12.67
42119;BMP280;27783;42.782;23.274;2022-12-10T15:55:28;94274.06;;;12.65
42119;BMP280;27783;42.782;23.274;2022-12-10T15:57:54;94274.31;;;12.70
42119;BMP280;27783;42.782;23.274;2022-12-10T16:00:26;94261.81;;;12.58
42119;BMP280;27783;42.782;23.274;2022-12-10T16:03:02;94259.69;;;12.53
42119;BMP280;27783;42.782;23.274;2022-12-10T16:05:46;94256.31;;;12.41
42119;BMP280;27783;42.782;23.274;2022-12-10T16:08:39;94250.91;;;12.44
42119;BMP280;27783;42.782;23.274;2022-12-10T16:11:16;94252.81;;;12.44
42119;BMP280;27783;42.782;23.274;2022-12-10T16:13:44;94249.63;;;12.49
42119;BMP280;27783;42.782;23.274;2022-12-10T16:16:11;94243.91;;;12.38
42119;BMP280;27783;42.782;23.274;2022-12-10T16:18:40;94239.06;;;12.36
42119;BMP280;27783;42.782;23.274;2022-12-10T16:21:08;94238.63;;;12.38
42119;BMP280;27783;42.782;23.274;2022-12-10T16:23:34;94233.03;;;12.36
42119;BMP280;27783;42.782;23.274;2022-12-10T16:26:00;94237.16;;;12.37
42119;BMP280;27783;42.782;23.274;2022-12-10T16:28:27;94235.88;;;12.29
42119;BMP280;27783;42.782;23.274;2022-12-10T16:30:57;94227.56;;;12.31
42119;BMP280;27783;42.782;23.274;2022-12-10T16:33:24;94220.69;;;12.33
42119;BMP280;27783;42.782;23.274;2022-12-10T16:35:55;94222.38;;;12.27